CheckWX is a tool to help pilots better visualize weather data.  It is not intended as a substitute for an official pre-flight weather briefing.

18:02:21 UTC

EDLW TAF
Dortmund Airport
Dortmund, Germany
TAF EDLW 171700Z 1718/1818 19008KT CAVOK

Feb-17@
18:00 UTC

Feb-17 @ 18:00 UTC

Feb-18@
18:00 UTC

Feb-18 @ 18:00 UTC

TAF EDLW 171700Z 1718/1818 19008KT CAVOK
Wind
  • 190° at 8 KTS
Visibility
10,000+ meters
Conditions
No significant weather
Cloud Levels
  • No significant clouds